Terminal Aerodrome Forecast
Issued by NWS

Home | Current Version | Previous Version | Text Only | Print | Product List | Glossary On
Versions: 1 2 3 4 5 6 7 8 9 10 11 12 13 14
000
FTUS45 KRIW 300808 AAB
TAFJAC
TAF AMD
KJAC 300808Z 3008/0106 VRB05KT P6SM VCFG BKN005
     FM300900 VRB05KT 3SM BR SCT005 BKN060
      TEMPO 3009/3013 1 1/2SM BR BKN005
     FM301500 VRB05KT P6SM VCSH SCT070
     FM301900 19009KT P6SM SCT060 BKN080
     FM010200 VRB05KT P6SM SCT080
      AMD LTD TO CLD VIS AND WIND=

USA.gov is the U.S. government's official web portal to all federal, state and local government web resources and services.